sensor_id;sensor_type;location;lat;lon;timestamp;P1;durP1;ratioP1;P2;durP2;ratioP2
31872;SDS011;22407;42.820;23.374;2022-07-04T00:01:38;7.78;;;4.10;;
31872;SDS011;22407;42.820;23.374;2022-07-04T00:04:07;8.95;;;4.28;;
31872;SDS011;22407;42.820;23.374;2022-07-04T00:06:36;8.43;;;3.90;;
31872;SDS011;22407;42.820;23.374;2022-07-04T00:09:05;9.00;;;4.10;;
31872;SDS011;22407;42.820;23.374;2022-07-04T00:11:34;9.87;;;4.10;;
31872;SDS011;22407;42.820;23.374;2022-07-04T00:14:03;8.35;;;3.87;;
31872;SDS011;22407;42.820;23.374;2022-07-04T00:16:32;9.28;;;4.03;;
31872;SDS011;22407;42.820;23.374;2022-07-04T00:19:01;7.35;;;3.60;;
31872;SDS011;22407;42.820;23.374;2022-07-04T00:21:30;9.38;;;4.20;;
31872;SDS011;22407;42.820;23.374;2022-07-04T00:24:00;9.50;;;4.27;;
31872;SDS011;22407;42.820;23.374;2022-07-04T00:26:29;10.13;;;4.45;;
31872;SDS011;22407;42.820;23.374;2022-07-04T00:28:58;8.80;;;4.22;;
31872;SDS011;22407;42.820;23.374;2022-07-04T00:31:26;7.90;;;4.00;;
31872;SDS011;22407;42.820;23.374;2022-07-04T00:33:55;8.60;;;3.98;;
31872;SDS011;22407;42.820;23.374;2022-07-04T00:36:24;7.53;;;3.80;;
31872;SDS011;22407;42.820;23.374;2022-07-04T00:38:53;8.58;;;3.70;;
31872;SDS011;22407;42.820;23.374;2022-07-04T00:41:22;8.23;;;4.10;;
31872;SDS011;22407;42.820;23.374;2022-07-04T00:44:01;9.38;;;3.90;;
31872;SDS011;22407;42.820;23.374;2022-07-04T00:46:33;8.75;;;3.83;;
31872;SDS011;22407;42.820;23.374;2022-07-04T00:49:03;8.63;;;3.90;;
31872;SDS011;22407;42.820;23.374;2022-07-04T00:51:33;7.78;;;3.95;;
31872;SDS011;22407;42.820;23.374;2022-07-04T00:54:03;8.48;;;4.00;;
31872;SDS011;22407;42.820;23.374;2022-07-04T00:56:37;7.80;;;3.60;;
31872;SDS011;22407;42.820;23.374;2022-07-04T00:59:07;8.23;;;3.95;;
31872;SDS011;22407;42.820;23.374;2022-07-04T01:01:37;8.83;;;4.00;;
31872;SDS011;22407;42.820;23.374;2022-07-04T01:04:06;9.80;;;3.98;;
31872;SDS011;22407;42.820;23.374;2022-07-04T01:06:35;7.97;;;3.95;;
31872;SDS011;22407;42.820;23.374;2022-07-04T01:09:05;8.25;;;3.80;;
31872;SDS011;22407;42.820;23.374;2022-07-04T01:11:34;8.45;;;4.05;;
31872;SDS011;22407;42.820;23.374;2022-07-04T01:14:03;8.27;;;3.80;;
31872;SDS011;22407;42.820;23.374;2022-07-04T01:16:35;7.70;;;3.60;;
31872;SDS011;22407;42.820;23.374;2022-07-04T01:19:04;7.30;;;3.75;;
31872;SDS011;22407;42.820;23.374;2022-07-04T01:21:33;7.47;;;3.42;;
31872;SDS011;22407;42.820;23.374;2022-07-04T01:24:02;8.35;;;4.10;;
31872;SDS011;22407;42.820;23.374;2022-07-04T01:26:31;7.03;;;3.37;;
31872;SDS011;22407;42.820;23.374;2022-07-04T01:29:00;8.33;;;3.72;;
31872;SDS011;22407;42.820;23.374;2022-07-04T01:31:29;9.10;;;3.90;;
31872;SDS011;22407;42.820;23.374;2022-07-04T01:33:57;7.92;;;3.58;;
31872;SDS011;22407;42.820;23.374;2022-07-04T01:36:26;7.65;;;3.85;;
31872;SDS011;22407;42.820;23.374;2022-07-04T01:38:55;7.67;;;3.90;;
31872;SDS011;22407;42.820;23.374;2022-07-04T01:41:25;7.75;;;3.22;;
31872;SDS011;22407;42.820;23.374;2022-07-04T01:43:56;7.95;;;3.67;;
31872;SDS011;22407;42.820;23.374;2022-07-04T01:46:25;9.70;;;3.95;;
31872;SDS011;22407;42.820;23.374;2022-07-04T01:48:54;8.50;;;3.67;;
31872;SDS011;22407;42.820;23.374;2022-07-04T01:51:22;7.43;;;3.60;;
31872;SDS011;22407;42.820;23.374;2022-07-04T01:53:51;7.30;;;3.55;;
31872;SDS011;22407;42.820;23.374;2022-07-04T01:56:20;8.85;;;3.60;;
31872;SDS011;22407;42.820;23.374;2022-07-04T01:58:49;8.05;;;3.55;;
31872;SDS011;22407;42.820;23.374;2022-07-04T02:01:18;8.27;;;3.90;;
31872;SDS011;22407;42.820;23.374;2022-07-04T02:04:00;8.90;;;3.70;;
31872;SDS011;22407;42.820;23.374;2022-07-04T02:06:29;7.70;;;3.60;;
31872;SDS011;22407;42.820;23.374;2022-07-04T02:08:59;8.30;;;4.20;;
31872;SDS011;22407;42.820;23.374;2022-07-04T02:11:43;9.15;;;3.90;;
31872;SDS011;22407;42.820;23.374;2022-07-04T02:14:31;6.85;;;3.40;;
31872;SDS011;22407;42.820;23.374;2022-07-04T02:17:01;10.00;;;3.65;;
31872;SDS011;22407;42.820;23.374;2022-07-04T02:19:30;7.55;;;3.20;;
31872;SDS011;22407;42.820;23.374;2022-07-04T02:21:59;8.95;;;3.85;;
31872;SDS011;22407;42.820;23.374;2022-07-04T02:26:56;8.05;;;3.35;;
31872;SDS011;22407;42.820;23.374;2022-07-04T02:29:25;8.25;;;3.70;;
31872;SDS011;22407;42.820;23.374;2022-07-04T02:31:54;8.50;;;3.50;;
31872;SDS011;22407;42.820;23.374;2022-07-04T02:34:23;6.80;;;3.40;;
31872;SDS011;22407;42.820;23.374;2022-07-04T02:36:53;8.95;;;3.75;;
31872;SDS011;22407;42.820;23.374;2022-07-04T02:39:22;8.90;;;3.40;;
31872;SDS011;22407;42.820;23.374;2022-07-04T02:44:19;8.45;;;3.40;;
31872;SDS011;22407;42.820;23.374;2022-07-04T02:46:48;6.80;;;3.30;;
31872;SDS011;22407;42.820;23.374;2022-07-04T02:49:16;11.70;;;3.50;;
31872;SDS011;22407;42.820;23.374;2022-07-04T02:51:46;10.43;;;3.57;;
31872;SDS011;22407;42.820;23.374;2022-07-04T02:54:15;7.65;;;2.90;;
31872;SDS011;22407;42.820;23.374;2022-07-04T02:56:44;6.55;;;3.20;;
31872;SDS011;22407;42.820;23.374;2022-07-04T02:59:13;8.90;;;3.50;;
31872;SDS011;22407;42.820;23.374;2022-07-04T03:01:41;8.75;;;3.85;;
31872;SDS011;22407;42.820;23.374;2022-07-04T03:04:10;10.45;;;3.45;;
31872;SDS011;22407;42.820;23.374;2022-07-04T03:06:39;7.70;;;3.40;;
31872;SDS011;22407;42.820;23.374;2022-07-04T03:09:09;7.80;;;3.40;;
31872;SDS011;22407;42.820;23.374;2022-07-04T03:11:38;8.88;;;4.00;;
31872;SDS011;22407;42.820;23.374;2022-07-04T03:14:07;7.55;;;3.35;;
31872;SDS011;22407;42.820;23.374;2022-07-04T03:16:36;7.60;;;3.50;;
31872;SDS011;22407;42.820;23.374;2022-07-04T03:19:05;7.85;;;3.75;;
31872;SDS011;22407;42.820;23.374;2022-07-04T03:21:35;8.10;;;3.50;;
31872;SDS011;22407;42.820;23.374;2022-07-04T03:24:04;8.70;;;3.50;;
31872;SDS011;22407;42.820;23.374;2022-07-04T03:33:58;7.20;;;3.30;;
31872;SDS011;22407;42.820;23.374;2022-07-04T03:36:27;8.10;;;3.55;;
31872;SDS011;22407;42.820;23.374;2022-07-04T03:38:56;7.20;;;3.35;;
31872;SDS011;22407;42.820;23.374;2022-07-04T03:41:25;7.00;;;3.40;;
31872;SDS011;22407;42.820;23.374;2022-07-04T03:43:54;10.20;;;3.65;;
31872;SDS011;22407;42.820;23.374;2022-07-04T03:46:23;7.70;;;3.60;;
31872;SDS011;22407;42.820;23.374;2022-07-04T03:48:52;7.45;;;3.80;;
31872;SDS011;22407;42.820;23.374;2022-07-04T03:58:46;7.35;;;3.35;;
31872;SDS011;22407;42.820;23.374;2022-07-04T04:01:18;7.83;;;3.97;;
31872;SDS011;22407;42.820;23.374;2022-07-04T04:03:47;7.20;;;3.60;;
31872;SDS011;22407;42.820;23.374;2022-07-04T04:06:34;9.73;;;3.67;;
31872;SDS011;22407;42.820;23.374;2022-07-04T04:09:03;7.90;;;3.70;;
31872;SDS011;22407;42.820;23.374;2022-07-04T04:11:32;9.00;;;3.80;;
31872;SDS011;22407;42.820;23.374;2022-07-04T04:14:01;7.65;;;4.10;;
31872;SDS011;22407;42.820;23.374;2022-07-04T04:16:29;7.55;;;3.35;;
31872;SDS011;22407;42.820;23.374;2022-07-04T04:18:58;10.30;;;3.90;;
31872;SDS011;22407;42.820;23.374;2022-07-04T04:23:55;9.35;;;4.20;;
31872;SDS011;22407;42.820;23.374;2022-07-04T04:53:32;10.60;;;4.30;;
31872;SDS011;22407;42.820;23.374;2022-07-04T05:05:53;10.00;;;5.10;;
31872;SDS011;22407;42.820;23.374;2022-07-04T05:10:52;9.20;;;4.40;;
31872;SDS011;22407;42.820;23.374;2022-07-04T05:13:21;9.50;;;4.60;;
31872;SDS011;22407;42.820;23.374;2022-07-04T05:18:18;9.75;;;4.30;;
31872;SDS011;22407;42.820;23.374;2022-07-04T05:28:10;10.50;;;4.80;;
31872;SDS011;22407;42.820;23.374;2022-07-04T05:30:39;9.20;;;4.40;;
31872;SDS011;22407;42.820;23.374;2022-07-04T05:33:09;8.60;;;4.70;;
31872;SDS011;22407;42.820;23.374;2022-07-04T05:40:34;9.05;;;4.90;;
31872;SDS011;22407;42.820;23.374;2022-07-04T05:43:03;8.80;;;4.50;;
31872;SDS011;22407;42.820;23.374;2022-07-04T05:45:32;9.75;;;5.20;;
31872;SDS011;22407;42.820;23.374;2022-07-04T05:48:00;9.50;;;4.40;;
31872;SDS011;22407;42.820;23.374;2022-07-04T05:50:29;8.95;;;4.70;;
31872;SDS011;22407;42.820;23.374;2022-07-04T05:52:58;8.58;;;4.55;;
31872;SDS011;22407;42.820;23.374;2022-07-04T05:55:27;8.28;;;4.62;;
31872;SDS011;22407;42.820;23.374;2022-07-04T05:57:56;8.58;;;4.60;;
31872;SDS011;22407;42.820;23.374;2022-07-04T06:00:25;8.57;;;4.00;;
31872;SDS011;22407;42.820;23.374;2022-07-04T06:02:54;7.62;;;4.35;;
31872;SDS011;22407;42.820;23.374;2022-07-04T06:05:23;9.38;;;4.28;;
31872;SDS011;22407;42.820;23.374;2022-07-04T06:07:51;7.70;;;4.30;;
31872;SDS011;22407;42.820;23.374;2022-07-04T06:10:20;7.30;;;4.08;;
31872;SDS011;22407;42.820;23.374;2022-07-04T06:12:49;9.10;;;4.03;;
31872;SDS011;22407;42.820;23.374;2022-07-04T06:15:19;9.45;;;4.40;;
31872;SDS011;22407;42.820;23.374;2022-07-04T06:17:48;8.05;;;4.15;;
31872;SDS011;22407;42.820;23.374;2022-07-04T06:20:17;10.30;;;4.15;;
31872;SDS011;22407;42.820;23.374;2022-07-04T06:22:47;8.90;;;4.60;;
31872;SDS011;22407;42.820;23.374;2022-07-04T06:25:17;7.90;;;4.10;;
31872;SDS011;22407;42.820;23.374;2022-07-04T06:27:48;8.80;;;4.20;;
31872;SDS011;22407;42.820;23.374;2022-07-04T06:30:19;9.37;;;4.30;;
31872;SDS011;22407;42.820;23.374;2022-07-04T06:32:48;8.67;;;4.37;;
31872;SDS011;22407;42.820;23.374;2022-07-04T06:35:25;9.20;;;4.60;;
31872;SDS011;22407;42.820;23.374;2022-07-04T06:38:16;10.50;;;4.80;;
31872;SDS011;22407;42.820;23.374;2022-07-04T06:40:46;8.80;;;4.90;;
31872;SDS011;22407;42.820;23.374;2022-07-04T06:43:16;7.85;;;4.45;;
31872;SDS011;22407;42.820;23.374;2022-07-04T06:48:13;11.85;;;4.60;;
31872;SDS011;22407;42.820;23.374;2022-07-04T06:53:11;7.40;;;4.30;;
31872;SDS011;22407;42.820;23.374;2022-07-04T06:58:09;8.80;;;4.70;;
31872;SDS011;22407;42.820;23.374;2022-07-04T07:00:39;10.70;;;4.15;;
31872;SDS011;22407;42.820;23.374;2022-07-04T07:03:08;7.90;;;3.90;;
31872;SDS011;22407;42.820;23.374;2022-07-04T07:05:37;9.13;;;4.17;;
31872;SDS011;22407;42.820;23.374;2022-07-04T07:08:06;7.35;;;4.30;;
31872;SDS011;22407;42.820;23.374;2022-07-04T07:10:35;7.28;;;4.00;;
31872;SDS011;22407;42.820;23.374;2022-07-04T07:13:04;9.10;;;4.10;;
31872;SDS011;22407;42.820;23.374;2022-07-04T07:15:33;7.30;;;3.65;;
31872;SDS011;22407;42.820;23.374;2022-07-04T07:23:01;7.40;;;3.80;;
31872;SDS011;22407;42.820;23.374;2022-07-04T07:25:31;7.80;;;4.40;;
31872;SDS011;22407;42.820;23.374;2022-07-04T07:30:29;8.40;;;4.10;;
31872;SDS011;22407;42.820;23.374;2022-07-04T07:32:58;8.50;;;4.10;;
31872;SDS011;22407;42.820;23.374;2022-07-04T07:35:27;8.30;;;4.00;;
31872;SDS011;22407;42.820;23.374;2022-07-04T07:37:56;8.70;;;4.00;;
31872;SDS011;22407;42.820;23.374;2022-07-04T07:42:53;6.90;;;3.90;;
31872;SDS011;22407;42.820;23.374;2022-07-04T07:45:22;8.10;;;4.30;;
31872;SDS011;22407;42.820;23.374;2022-07-04T07:47:50;7.20;;;3.90;;
31872;SDS011;22407;42.820;23.374;2022-07-04T07:50:19;9.05;;;4.25;;
31872;SDS011;22407;42.820;23.374;2022-07-04T07:52:48;8.57;;;4.10;;
31872;SDS011;22407;42.820;23.374;2022-07-04T07:55:17;7.60;;;4.10;;
31872;SDS011;22407;42.820;23.374;2022-07-04T07:57:46;7.95;;;4.40;;
31872;SDS011;22407;42.820;23.374;2022-07-04T08:00:15;8.65;;;4.20;;
31872;SDS011;22407;42.820;23.374;2022-07-04T08:02:44;7.60;;;4.10;;
31872;SDS011;22407;42.820;23.374;2022-07-04T08:05:31;10.17;;;4.30;;
31872;SDS011;22407;42.820;23.374;2022-07-04T08:08:00;7.77;;;4.20;;
31872;SDS011;22407;42.820;23.374;2022-07-04T08:32:48;8.10;;;4.60;;
31872;SDS011;22407;42.820;23.374;2022-07-04T08:50:11;8.45;;;4.85;;
31872;SDS011;22407;42.820;23.374;2022-07-04T08:52:43;8.00;;;4.60;;
31872;SDS011;22407;42.820;23.374;2022-07-04T08:55:14;9.40;;;5.00;;
31872;SDS011;22407;42.820;23.374;2022-07-04T09:00:47;8.70;;;5.30;;
31872;SDS011;22407;42.820;23.374;2022-07-04T09:03:18;10.20;;;4.80;;
31872;SDS011;22407;42.820;23.374;2022-07-04T09:05:48;9.00;;;4.60;;
31872;SDS011;22407;42.820;23.374;2022-07-04T09:08:17;8.50;;;4.60;;
31872;SDS011;22407;42.820;23.374;2022-07-04T09:10:47;8.85;;;4.60;;
31872;SDS011;22407;42.820;23.374;2022-07-04T09:13:17;9.40;;;4.60;;
31872;SDS011;22407;42.820;23.374;2022-07-04T09:15:50;8.13;;;5.10;;
31872;SDS011;22407;42.820;23.374;2022-07-04T09:41:13;12.80;;;4.60;;
31872;SDS011;22407;42.820;23.374;2022-07-04T10:09:19;9.50;;;5.10;;
31872;SDS011;22407;42.820;23.374;2022-07-04T10:26:37;8.40;;;5.00;;
31872;SDS011;22407;42.820;23.374;2022-07-04T10:29:06;8.90;;;4.80;;
31872;SDS011;22407;42.820;23.374;2022-07-04T10:39:02;9.40;;;5.50;;
31872;SDS011;22407;42.820;23.374;2022-07-04T10:41:32;9.43;;;5.05;;
31872;SDS011;22407;42.820;23.374;2022-07-04T10:44:02;9.25;;;5.40;;
31872;SDS011;22407;42.820;23.374;2022-07-04T10:46:36;10.32;;;5.42;;
31872;SDS011;22407;42.820;23.374;2022-07-04T10:49:16;8.53;;;5.40;;
31872;SDS011;22407;42.820;23.374;2022-07-04T10:51:46;9.80;;;5.43;;
31872;SDS011;22407;42.820;23.374;2022-07-04T10:54:32;10.30;;;5.30;;
31872;SDS011;22407;42.820;23.374;2022-07-04T11:05:05;8.20;;;5.00;;
31872;SDS011;22407;42.820;23.374;2022-07-04T11:18:07;9.00;;;5.27;;
31872;SDS011;22407;42.820;23.374;2022-07-04T11:20:45;10.75;;;5.12;;
31872;SDS011;22407;42.820;23.374;2022-07-04T11:23:15;8.80;;;4.92;;
31872;SDS011;22407;42.820;23.374;2022-07-04T11:25:47;9.18;;;4.97;;
31872;SDS011;22407;42.820;23.374;2022-07-04T11:28:22;9.63;;;5.47;;
31872;SDS011;22407;42.820;23.374;2022-07-04T11:30:57;8.63;;;4.90;;
31872;SDS011;22407;42.820;23.374;2022-07-04T11:33:29;9.50;;;5.28;;
31872;SDS011;22407;42.820;23.374;2022-07-04T11:36:10;9.50;;;5.10;;
31872;SDS011;22407;42.820;23.374;2022-07-04T11:38:49;10.95;;;5.25;;
31872;SDS011;22407;42.820;23.374;2022-07-04T11:41:17;10.88;;;5.30;;
31872;SDS011;22407;42.820;23.374;2022-07-04T11:44:06;8.30;;;5.37;;
31872;SDS011;22407;42.820;23.374;2022-07-04T11:47:02;10.20;;;5.37;;
31872;SDS011;22407;42.820;23.374;2022-07-04T11:49:32;10.05;;;5.30;;
31872;SDS011;22407;42.820;23.374;2022-07-04T11:52:01;9.15;;;5.58;;
31872;SDS011;22407;42.820;23.374;2022-07-04T11:54:30;10.10;;;5.50;;
31872;SDS011;22407;42.820;23.374;2022-07-04T11:57:19;9.00;;;5.37;;
31872;SDS011;22407;42.820;23.374;2022-07-04T11:59:56;9.78;;;5.55;;
31872;SDS011;22407;42.820;23.374;2022-07-04T12:02:28;10.30;;;5.40;;
31872;SDS011;22407;42.820;23.374;2022-07-04T12:04:58;9.90;;;5.70;;
31872;SDS011;22407;42.820;23.374;2022-07-04T12:07:30;9.83;;;5.92;;
31872;SDS011;22407;42.820;23.374;2022-07-04T12:10:22;11.40;;;5.27;;
31872;SDS011;22407;42.820;23.374;2022-07-04T12:15:36;9.00;;;5.45;;
31872;SDS011;22407;42.820;23.374;2022-07-04T12:18:17;8.95;;;5.85;;
31872;SDS011;22407;42.820;23.374;2022-07-04T12:20:52;9.00;;;5.53;;
31872;SDS011;22407;42.820;23.374;2022-07-04T12:23:22;9.30;;;5.33;;
31872;SDS011;22407;42.820;23.374;2022-07-04T12:25:53;11.43;;;6.03;;
31872;SDS011;22407;42.820;23.374;2022-07-04T12:28:23;9.60;;;5.50;;
31872;SDS011;22407;42.820;23.374;2022-07-04T12:30:54;10.30;;;5.78;;
31872;SDS011;22407;42.820;23.374;2022-07-04T12:33:26;10.60;;;5.47;;
31872;SDS011;22407;42.820;23.374;2022-07-04T12:35:59;9.70;;;5.30;;
31872;SDS011;22407;42.820;23.374;2022-07-04T12:41:08;10.25;;;5.62;;
31872;SDS011;22407;42.820;23.374;2022-07-04T12:49:01;10.27;;;5.43;;
31872;SDS011;22407;42.820;23.374;2022-07-04T12:51:31;8.65;;;5.72;;
31872;SDS011;22407;42.820;23.374;2022-07-04T12:54:08;9.23;;;5.92;;
31872;SDS011;22407;42.820;23.374;2022-07-04T12:56:39;9.68;;;5.87;;
31872;SDS011;22407;42.820;23.374;2022-07-04T12:59:16;10.20;;;5.92;;
31872;SDS011;22407;42.820;23.374;2022-07-04T13:01:41;10.33;;;5.83;;
31872;SDS011;22407;42.820;23.374;2022-07-04T13:04:12;9.63;;;6.10;;
31872;SDS011;22407;42.820;23.374;2022-07-04T13:06:41;12.07;;;6.08;;
31872;SDS011;22407;42.820;23.374;2022-07-04T13:09:10;8.95;;;5.78;;
31872;SDS011;22407;42.820;23.374;2022-07-04T13:11:39;11.25;;;6.12;;
31872;SDS011;22407;42.820;23.374;2022-07-04T13:14:26;10.30;;;5.83;;
31872;SDS011;22407;42.820;23.374;2022-07-04T13:16:55;9.95;;;6.10;;
31872;SDS011;22407;42.820;23.374;2022-07-04T13:19:23;13.55;;;6.75;;
31872;SDS011;22407;42.820;23.374;2022-07-04T13:21:53;10.40;;;6.33;;
31872;SDS011;22407;42.820;23.374;2022-07-04T13:24:22;9.30;;;6.00;;
31872;SDS011;22407;42.820;23.374;2022-07-04T13:26:51;22.63;;;7.50;;
31872;SDS011;22407;42.820;23.374;2022-07-04T13:29:19;11.70;;;6.40;;
31872;SDS011;22407;42.820;23.374;2022-07-04T13:31:49;11.45;;;6.58;;
31872;SDS011;22407;42.820;23.374;2022-07-04T13:34:18;11.75;;;6.20;;
31872;SDS011;22407;42.820;23.374;2022-07-04T13:36:47;10.98;;;6.72;;
31872;SDS011;22407;42.820;23.374;2022-07-04T13:39:17;10.57;;;6.50;;
31872;SDS011;22407;42.820;23.374;2022-07-04T13:41:46;9.43;;;5.92;;
31872;SDS011;22407;42.820;23.374;2022-07-04T13:44:16;10.58;;;6.03;;
31872;SDS011;22407;42.820;23.374;2022-07-04T13:46:44;11.55;;;6.65;;
31872;SDS011;22407;42.820;23.374;2022-07-04T13:49:13;12.25;;;6.00;;
31872;SDS011;22407;42.820;23.374;2022-07-04T13:51:42;11.50;;;6.50;;
31872;SDS011;22407;42.820;23.374;2022-07-04T13:54:11;10.55;;;6.60;;
31872;SDS011;22407;42.820;23.374;2022-07-04T13:56:40;10.90;;;6.17;;
31872;SDS011;22407;42.820;23.374;2022-07-04T13:59:09;10.03;;;6.47;;
31872;SDS011;22407;42.820;23.374;2022-07-04T14:01:38;10.95;;;6.37;;
31872;SDS011;22407;42.820;23.374;2022-07-04T14:04:08;10.87;;;6.17;;
31872;SDS011;22407;42.820;23.374;2022-07-04T14:06:37;9.73;;;6.05;;
31872;SDS011;22407;42.820;23.374;2022-07-04T14:09:06;17.15;;;6.83;;
31872;SDS011;22407;42.820;23.374;2022-07-04T14:11:35;13.22;;;5.87;;
31872;SDS011;22407;42.820;23.374;2022-07-04T14:14:04;9.73;;;6.20;;
31872;SDS011;22407;42.820;23.374;2022-07-04T14:16:32;11.27;;;7.10;;
31872;SDS011;22407;42.820;23.374;2022-07-04T14:19:02;10.95;;;6.40;;
31872;SDS011;22407;42.820;23.374;2022-07-04T14:21:31;10.85;;;6.60;;
31872;SDS011;22407;42.820;23.374;2022-07-04T14:23:59;11.45;;;6.37;;
31872;SDS011;22407;42.820;23.374;2022-07-04T14:26:29;10.93;;;6.15;;
31872;SDS011;22407;42.820;23.374;2022-07-04T14:28:58;11.47;;;6.60;;
31872;SDS011;22407;42.820;23.374;2022-07-04T14:31:27;11.85;;;6.45;;
31872;SDS011;22407;42.820;23.374;2022-07-04T14:33:56;10.28;;;6.40;;
31872;SDS011;22407;42.820;23.374;2022-07-04T14:36:25;10.78;;;6.50;;
31872;SDS011;22407;42.820;23.374;2022-07-04T14:38:53;11.33;;;6.58;;
31872;SDS011;22407;42.820;23.374;2022-07-04T14:41:22;11.37;;;7.07;;
31872;SDS011;22407;42.820;23.374;2022-07-04T14:43:52;10.53;;;6.83;;
31872;SDS011;22407;42.820;23.374;2022-07-04T14:46:21;11.28;;;6.90;;
31872;SDS011;22407;42.820;23.374;2022-07-04T14:48:50;11.97;;;6.65;;
31872;SDS011;22407;42.820;23.374;2022-07-04T14:51:19;12.65;;;6.75;;
31872;SDS011;22407;42.820;23.374;2022-07-04T14:53:48;10.17;;;6.50;;
31872;SDS011;22407;42.820;23.374;2022-07-04T14:56:17;9.68;;;5.75;;
31872;SDS011;22407;42.820;23.374;2022-07-04T14:58:46;10.45;;;6.05;;
31872;SDS011;22407;42.820;23.374;2022-07-04T15:01:15;10.63;;;6.17;;
31872;SDS011;22407;42.820;23.374;2022-07-04T15:03:44;13.18;;;6.03;;
31872;SDS011;22407;42.820;23.374;2022-07-04T15:06:13;9.87;;;5.77;;
31872;SDS011;22407;42.820;23.374;2022-07-04T15:08:42;9.90;;;5.87;;
31872;SDS011;22407;42.820;23.374;2022-07-04T15:11:11;11.85;;;5.60;;
31872;SDS011;22407;42.820;23.374;2022-07-04T15:13:40;9.33;;;5.80;;
31872;SDS011;22407;42.820;23.374;2022-07-04T15:16:09;9.78;;;5.37;;
31872;SDS011;22407;42.820;23.374;2022-07-04T15:18:39;12.77;;;5.63;;
31872;SDS011;22407;42.820;23.374;2022-07-04T15:21:08;12.53;;;5.60;;
31872;SDS011;22407;42.820;23.374;2022-07-04T15:23:55;8.85;;;5.22;;
31872;SDS011;22407;42.820;23.374;2022-07-04T15:26:42;12.60;;;4.87;;
31872;SDS011;22407;42.820;23.374;2022-07-04T15:29:13;9.50;;;5.08;;
31872;SDS011;22407;42.820;23.374;2022-07-04T15:31:42;10.67;;;4.77;;
31872;SDS011;22407;42.820;23.374;2022-07-04T15:34:12;12.98;;;4.90;;
31872;SDS011;22407;42.820;23.374;2022-07-04T15:36:42;8.95;;;4.92;;
31872;SDS011;22407;42.820;23.374;2022-07-04T15:39:11;8.38;;;4.55;;
31872;SDS011;22407;42.820;23.374;2022-07-04T15:41:42;8.40;;;4.60;;
31872;SDS011;22407;42.820;23.374;2022-07-04T15:44:12;8.53;;;4.83;;
31872;SDS011;22407;42.820;23.374;2022-07-04T15:46:42;8.70;;;4.60;;
31872;SDS011;22407;42.820;23.374;2022-07-04T15:49:29;10.60;;;4.60;;
31872;SDS011;22407;42.820;23.374;2022-07-04T15:51:58;8.45;;;4.47;;
31872;SDS011;22407;42.820;23.374;2022-07-04T15:54:27;8.25;;;4.67;;
31872;SDS011;22407;42.820;23.374;2022-07-04T15:56:56;7.93;;;4.17;;
31872;SDS011;22407;42.820;23.374;2022-07-04T15:59:25;14.07;;;4.80;;
31872;SDS011;22407;42.820;23.374;2022-07-04T16:01:54;8.63;;;4.58;;
31872;SDS011;22407;42.820;23.374;2022-07-04T16:04:23;9.00;;;4.55;;
31872;SDS011;22407;42.820;23.374;2022-07-04T16:06:52;10.18;;;4.58;;
31872;SDS011;22407;42.820;23.374;2022-07-04T16:09:21;11.07;;;4.63;;
31872;SDS011;22407;42.820;23.374;2022-07-04T16:11:50;8.70;;;4.37;;
31872;SDS011;22407;42.820;23.374;2022-07-04T16:14:20;8.35;;;4.45;;
31872;SDS011;22407;42.820;23.374;2022-07-04T16:16:49;9.30;;;4.90;;
31872;SDS011;22407;42.820;23.374;2022-07-04T16:19:18;8.68;;;4.70;;
31872;SDS011;22407;42.820;23.374;2022-07-04T16:21:47;8.10;;;4.50;;
31872;SDS011;22407;42.820;23.374;2022-07-04T16:24:15;9.58;;;4.65;;
31872;SDS011;22407;42.820;23.374;2022-07-04T16:26:44;9.78;;;4.65;;
31872;SDS011;22407;42.820;23.374;2022-07-04T16:29:13;8.93;;;4.70;;
31872;SDS011;22407;42.820;23.374;2022-07-04T16:31:42;11.60;;;4.80;;
31872;SDS011;22407;42.820;23.374;2022-07-04T16:34:11;8.50;;;4.93;;
31872;SDS011;22407;42.820;23.374;2022-07-04T16:36:40;11.18;;;4.75;;
31872;SDS011;22407;42.820;23.374;2022-07-04T16:39:09;7.90;;;4.28;;
31872;SDS011;22407;42.820;23.374;2022-07-04T16:41:38;10.08;;;4.78;;
31872;SDS011;22407;42.820;23.374;2022-07-04T16:44:07;8.25;;;4.85;;
31872;SDS011;22407;42.820;23.374;2022-07-04T16:46:35;11.53;;;5.13;;
31872;SDS011;22407;42.820;23.374;2022-07-04T16:49:04;8.65;;;4.80;;
31872;SDS011;22407;42.820;23.374;2022-07-04T16:51:33;8.98;;;4.87;;
31872;SDS011;22407;42.820;23.374;2022-07-04T16:54:02;11.00;;;5.05;;
31872;SDS011;22407;42.820;23.374;2022-07-04T16:56:31;13.08;;;5.17;;
31872;SDS011;22407;42.820;23.374;2022-07-04T16:59:00;9.60;;;5.10;;
31872;SDS011;22407;42.820;23.374;2022-07-04T17:01:29;10.05;;;5.97;;
31872;SDS011;22407;42.820;23.374;2022-07-04T17:03:58;10.82;;;5.83;;
31872;SDS011;22407;42.820;23.374;2022-07-04T17:06:27;11.22;;;6.10;;
31872;SDS011;22407;42.820;23.374;2022-07-04T17:08:55;12.18;;;6.05;;
31872;SDS011;22407;42.820;23.374;2022-07-04T17:11:24;10.40;;;6.10;;
31872;SDS011;22407;42.820;23.374;2022-07-04T17:13:53;10.98;;;6.20;;
31872;SDS011;22407;42.820;23.374;2022-07-04T17:16:22;13.75;;;6.17;;
31872;SDS011;22407;42.820;23.374;2022-07-04T17:18:52;11.22;;;5.60;;
31872;SDS011;22407;42.820;23.374;2022-07-04T17:21:22;12.98;;;5.58;;
31872;SDS011;22407;42.820;23.374;2022-07-04T17:23:51;9.00;;;4.80;;
31872;SDS011;22407;42.820;23.374;2022-07-04T17:26:19;10.03;;;4.97;;
31872;SDS011;22407;42.820;23.374;2022-07-04T17:28:50;9.25;;;5.47;;
31872;SDS011;22407;42.820;23.374;2022-07-04T17:31:18;9.33;;;4.95;;
31872;SDS011;22407;42.820;23.374;2022-07-04T17:33:47;8.83;;;5.30;;
31872;SDS011;22407;42.820;23.374;2022-07-04T17:36:16;9.00;;;4.90;;
31872;SDS011;22407;42.820;23.374;2022-07-04T17:38:45;12.23;;;5.25;;
31872;SDS011;22407;42.820;23.374;2022-07-04T17:41:14;11.00;;;5.37;;
31872;SDS011;22407;42.820;23.374;2022-07-04T17:44:00;10.75;;;5.65;;
31872;SDS011;22407;42.820;23.374;2022-07-04T17:46:29;11.63;;;5.20;;
31872;SDS011;22407;42.820;23.374;2022-07-04T17:48:58;9.43;;;4.93;;
31872;SDS011;22407;42.820;23.374;2022-07-04T17:51:27;9.60;;;5.12;;
31872;SDS011;22407;42.820;23.374;2022-07-04T17:53:56;10.00;;;5.25;;
31872;SDS011;22407;42.820;23.374;2022-07-04T17:56:25;12.33;;;5.33;;
31872;SDS011;22407;42.820;23.374;2022-07-04T17:58:54;11.05;;;5.28;;
31872;SDS011;22407;42.820;23.374;2022-07-04T18:01:23;10.23;;;5.43;;
31872;SDS011;22407;42.820;23.374;2022-07-04T18:03:52;11.57;;;5.70;;
31872;SDS011;22407;42.820;23.374;2022-07-04T18:06:23;10.25;;;4.92;;
31872;SDS011;22407;42.820;23.374;2022-07-04T18:08:53;8.98;;;5.20;;
31872;SDS011;22407;42.820;23.374;2022-07-04T18:11:22;9.18;;;5.28;;
31872;SDS011;22407;42.820;23.374;2022-07-04T18:13:51;10.37;;;5.30;;
31872;SDS011;22407;42.820;23.374;2022-07-04T18:16:19;11.93;;;5.37;;
31872;SDS011;22407;42.820;23.374;2022-07-04T18:18:48;10.88;;;5.22;;
31872;SDS011;22407;42.820;23.374;2022-07-04T18:21:17;11.00;;;5.20;;
31872;SDS011;22407;42.820;23.374;2022-07-04T18:23:46;11.57;;;5.62;;
31872;SDS011;22407;42.820;23.374;2022-07-04T18:26:16;10.80;;;5.73;;
31872;SDS011;22407;42.820;23.374;2022-07-04T18:28:44;13.62;;;5.58;;
31872;SDS011;22407;42.820;23.374;2022-07-04T18:31:14;11.85;;;5.83;;
31872;SDS011;22407;42.820;23.374;2022-07-04T18:33:43;11.25;;;5.53;;
31872;SDS011;22407;42.820;23.374;2022-07-04T18:36:11;10.55;;;5.40;;
31872;SDS011;22407;42.820;23.374;2022-07-04T18:38:40;11.03;;;5.77;;
31872;SDS011;22407;42.820;23.374;2022-07-04T18:41:09;10.10;;;5.28;;
31872;SDS011;22407;42.820;23.374;2022-07-04T18:43:56;10.10;;;5.30;;